BEG weather

Belgrade Nikola Tesla Airport
Belgrade, Beograd (city), Serbia

Public forecast

Using degrees Celsius for public forecast. Weather courtesy of forecast.io.

METAR (pilot weather report)

Retrieved 2019/04/23 03:30 UTC (4 minutes ago):

LYBE 230330Z 13023KT 9999 -RA SCT040 11/06 Q1015 NOSIG

TAF (pilot weather forecast)

Forecast is more than 12 hours old.

Retrieved 2019/04/22 00:21 UTC (1 day ago):

TAF LYBE 222300Z 2300/2324 12022KT CAVOK TX18/2314Z TN10/2305Z TEMPO 2303/2308 RA TEMPO 2308/2321 12025G40KT